createdAt,value
2019-04-11T00:00:55.492Z,7.07
2019-04-11T00:03:23.621Z,5.97
2019-04-11T00:05:52.866Z,6.40
2019-04-11T00:08:21.737Z,6.90
2019-04-11T00:10:50.225Z,7.00
2019-04-11T00:13:24.320Z,7.20
2019-04-11T00:15:48.774Z,6.67
2019-04-11T00:18:17.328Z,7.33
2019-04-11T00:20:46.755Z,6.57
2019-04-11T00:23:16.364Z,7.07
2019-04-11T00:25:45.150Z,7.23
2019-04-11T00:28:15.335Z,5.90
2019-04-11T00:30:44.107Z,6.53
2019-04-11T00:33:12.585Z,6.90
2019-04-11T00:35:42.401Z,6.60
2019-04-11T00:38:11.763Z,7.37
2019-04-11T00:40:41.628Z,7.47
2019-04-11T00:43:11.367Z,6.60
2019-04-11T00:45:40.033Z,6.30
2019-04-11T00:48:09.228Z,6.77
2019-04-11T00:50:37.273Z,6.53
2019-04-11T00:53:06.027Z,6.23
2019-04-11T00:55:35.617Z,6.97
2019-04-11T00:58:05.440Z,6.20
2019-04-11T01:00:36.534Z,6.47
2019-04-11T01:03:04.863Z,6.53
2019-04-11T01:05:33.894Z,7.37
2019-04-11T01:08:02.973Z,6.73
2019-04-11T01:10:31.971Z,6.57
2019-04-11T01:13:00.799Z,6.33
2019-04-11T01:15:29.275Z,7.23
2019-04-11T01:17:58.047Z,6.60
2019-04-11T01:20:27.212Z,7.13
2019-04-11T01:22:56.417Z,6.77
2019-04-11T01:25:25.370Z,7.67
2019-04-11T01:27:56.435Z,7.63
2019-04-11T01:30:29.078Z,6.90
2019-04-11T01:32:58.934Z,7.20
2019-04-11T01:35:26.634Z,7.00
2019-04-11T01:37:55.755Z,6.87
2019-04-11T01:40:25.259Z,6.00
2019-04-11T01:42:53.061Z,6.37
2019-04-11T01:45:22.241Z,6.60
2019-04-11T01:48:04.932Z,7.77
2019-04-11T01:50:34.954Z,6.97
2019-04-11T01:53:04.087Z,6.43
2019-04-11T01:55:33.090Z,6.73
2019-04-11T01:58:02.535Z,7.30
2019-04-11T02:01:35.508Z,6.57
2019-04-11T02:04:23.767Z,7.00
2019-04-11T02:06:52.010Z,7.53
2019-04-11T02:09:20.642Z,6.93
2019-04-11T02:11:52.115Z,7.27
2019-04-11T02:14:22.346Z,7.33
2019-04-11T02:16:52.022Z,7.30
2019-04-11T02:19:20.381Z,7.63
2019-04-11T02:21:49.568Z,8.13
2019-04-11T02:24:54.309Z,7.77
2019-04-11T02:27:26.021Z,7.17
2019-04-11T02:29:55.131Z,6.93
2019-04-11T02:32:24.959Z,7.20
2019-04-11T02:34:54.632Z,7.10
2019-04-11T02:37:24.029Z,7.27
2019-04-11T02:39:53.501Z,7.60
2019-04-11T02:42:21.421Z,7.03
2019-04-11T02:45:03.389Z,8.27
2019-04-11T02:47:24.262Z,7.93
2019-04-11T02:49:49.657Z,7.53
2019-04-11T02:52:19.555Z,7.50
2019-04-11T02:54:47.429Z,7.90
2019-04-11T02:57:16.490Z,7.87
2019-04-11T02:59:49.232Z,8.07
2019-04-11T03:02:19.534Z,7.43
2019-04-11T03:04:48.113Z,7.57
2019-04-11T03:07:16.668Z,7.97
2019-04-11T03:09:48.753Z,7.47
2019-04-11T03:12:15.784Z,8.67
2019-04-11T03:15:02.759Z,7.60
2019-04-11T03:17:21.294Z,7.70
2019-04-11T03:19:59.215Z,8.87
2019-04-11T03:22:18.218Z,8.03
2019-04-11T03:24:48.989Z,8.23
2019-04-11T03:27:17.832Z,8.50
2019-04-11T03:29:45.397Z,8.50
2019-04-11T03:33:00.728Z,8.43
2019-04-11T03:35:45.551Z,8.30
2019-04-11T03:37:37.320Z,8.50
2019-04-11T03:39:59.575Z,9.93
2019-04-11T03:42:29.943Z,9.30
2019-04-11T03:44:47.212Z,8.80
2019-04-11T03:47:23.707Z,9.03
2019-04-11T03:49:46.610Z,8.40
2019-04-11T03:52:09.780Z,8.13
2019-04-11T03:54:36.746Z,9.63
2019-04-11T03:57:05.615Z,9.47
2019-04-11T03:59:36.129Z,9.70
2019-04-11T04:02:03.320Z,8.97
2019-04-11T04:04:32.757Z,9.77
2019-04-11T04:07:00.454Z,9.80
2019-04-11T04:09:29.561Z,9.43
2019-04-11T04:11:59.681Z,9.90
2019-04-11T04:14:39.270Z,9.93
2019-04-11T04:17:17.171Z,9.13
2019-04-11T04:19:54.320Z,9.83
2019-04-11T04:22:31.420Z,9.63
2019-04-11T04:25:00.637Z,9.97
2019-04-11T04:27:28.192Z,9.70
2019-04-11T04:29:59.580Z,9.80
2019-04-11T04:32:25.576Z,10.10
2019-04-11T04:34:56.314Z,11.27
2019-04-11T04:37:26.065Z,9.60
2019-04-11T04:40:16.397Z,9.83
2019-04-11T04:42:27.214Z,11.27
2019-04-11T04:44:50.934Z,11.30
2019-04-11T04:47:29.837Z,10.87
2019-04-11T04:49:48.689Z,11.17
2019-04-11T04:52:18.671Z,10.90
2019-04-11T04:54:46.568Z,11.27
2019-04-11T04:57:15.466Z,11.67
2019-04-11T04:59:44.826Z,12.40
2019-04-11T05:02:14.895Z,11.30
2019-04-11T05:04:43.688Z,11.13
2019-04-11T05:07:12.148Z,11.73
2019-04-11T05:09:42.493Z,10.87
2019-04-11T05:12:11.878Z,11.23
2019-04-11T05:14:39.427Z,11.13
2019-04-11T05:17:08.787Z,11.70
2019-04-11T05:19:38.342Z,12.53
2019-04-11T05:22:08.774Z,11.97
2019-04-11T05:24:37.540Z,11.47
2019-04-11T05:27:06.908Z,12.00
2019-04-11T05:29:37.632Z,11.63
2019-04-11T05:32:07.259Z,11.50
2019-04-11T05:34:35.651Z,12.23
2019-04-11T05:37:05.150Z,12.20
2019-04-11T05:39:36.067Z,12.27
2019-04-11T05:42:05.119Z,11.30
2019-04-11T05:44:35.233Z,12.53
2019-04-11T05:47:05.627Z,13.43
2019-04-11T05:49:40.837Z,11.67
2019-04-11T05:52:10.171Z,11.73
2019-04-11T05:54:49.278Z,12.87
2019-04-11T05:57:22.162Z,12.03
2019-04-11T05:59:49.919Z,11.77
2019-04-11T06:02:24.848Z,11.93
2019-04-11T06:04:57.808Z,12.07
2019-04-11T06:07:42.414Z,12.07
2019-04-11T06:10:14.685Z,12.43
2019-04-11T06:13:50.950Z,11.40
2019-04-11T06:16:20.736Z,10.50
2019-04-11T06:18:54.831Z,8.50
2019-04-11T06:21:33.892Z,9.80
2019-04-11T06:24:12.031Z,9.50
2019-04-11T06:26:46.963Z,9.93
2019-04-11T06:29:23.246Z,10.00
2019-04-11T06:32:09.701Z,10.00
2019-04-11T06:34:43.818Z,9.20
2019-04-11T06:37:17.196Z,9.27
2019-04-11T06:39:57.755Z,9.30
2019-04-11T06:42:30.197Z,9.17
2019-04-11T06:45:04.062Z,9.50
2019-04-11T06:47:43.178Z,9.60
2019-04-11T06:50:25.096Z,9.00
2019-04-11T06:52:53.170Z,9.10
2019-04-11T06:55:28.994Z,10.00
2019-04-11T06:58:01.192Z,9.53
2019-04-11T07:00:31.457Z,9.37
2019-04-11T07:03:01.693Z,8.80
2019-04-11T07:05:33.139Z,8.30
2019-04-11T07:08:05.546Z,8.53
2019-04-11T07:10:40.808Z,9.43
2019-04-11T07:13:16.375Z,9.17
2019-04-11T07:15:48.926Z,8.43
2019-04-11T07:18:23.090Z,8.47
2019-04-11T07:20:56.359Z,8.83
2019-04-11T07:23:30.674Z,8.37
2019-04-11T07:26:38.480Z,8.70
2019-04-11T07:30:11.372Z,9.40
2019-04-11T07:32:40.629Z,8.90
2019-04-11T07:35:13.100Z,8.70
2019-04-11T07:37:44.703Z,8.50
2019-04-11T07:41:19.547Z,9.17
2019-04-11T07:43:48.009Z,8.30
2019-04-11T07:46:27.381Z,7.97
2019-04-11T07:48:59.428Z,7.57
2019-04-11T07:51:28.941Z,8.40
2019-04-11T07:54:02.332Z,7.63
2019-04-11T07:56:37.564Z,7.83
2019-04-11T07:59:08.310Z,10.17
2019-04-11T08:01:47.881Z,8.33
2019-04-11T08:04:22.103Z,9.23
2019-04-11T08:06:57.052Z,8.43
2019-04-11T08:09:42.068Z,8.50
2019-04-11T08:12:18.404Z,8.90
2019-04-11T08:16:58.035Z,7.63
2019-04-11T08:19:47.239Z,7.40
2019-04-11T08:22:20.992Z,8.37
2019-04-11T08:24:58.722Z,8.80
2019-04-11T08:27:29.445Z,7.60
2019-04-11T08:30:00.358Z,7.30
2019-04-11T08:32:34.507Z,7.47
2019-04-11T08:35:10.141Z,7.40
2019-04-11T08:37:45.452Z,7.37
2019-04-11T08:40:13.531Z,8.13
2019-04-11T08:42:50.922Z,7.43
2019-04-11T08:45:21.590Z,7.17
2019-04-11T08:47:54.507Z,7.30
2019-04-11T08:50:26.072Z,7.33
2019-04-11T08:53:06.733Z,8.03
2019-04-11T08:55:48.531Z,7.53
2019-04-11T08:58:20.511Z,7.70
2019-04-11T09:00:53.097Z,7.40
2019-04-11T09:03:38.348Z,7.20
2019-04-11T09:06:12.411Z,7.50
2019-04-11T09:09:15.478Z,8.20
2019-04-11T09:11:48.924Z,7.07
2019-04-11T09:14:22.697Z,7.80
2019-04-11T09:17:03.764Z,7.50
2019-04-11T09:19:36.796Z,7.10
2019-04-11T09:22:43.368Z,6.87
2019-04-11T09:25:18.985Z,7.83
2019-04-11T09:27:55.630Z,7.20
2019-04-11T09:30:28.609Z,7.63
2019-04-11T09:34:05.681Z,7.80
2019-04-11T09:36:47.244Z,7.47
2019-04-11T09:39:19.471Z,7.47
2019-04-11T09:42:56.085Z,7.20
2019-04-11T09:45:37.542Z,6.63
2019-04-11T09:48:15.278Z,7.07
2019-04-11T09:50:46.845Z,7.60
2019-04-11T09:53:14.796Z,6.63
2019-04-11T09:55:51.648Z,6.77
2019-04-11T09:58:25.296Z,6.97
2019-04-11T10:01:01.455Z,7.23
2019-04-11T10:03:32.152Z,6.97
2019-04-11T10:06:12.263Z,6.60
2019-04-11T10:08:43.711Z,6.17
2019-04-11T10:11:17.682Z,6.10
2019-04-11T10:14:19.555Z,6.80
2019-04-11T10:16:53.165Z,6.70
2019-04-11T10:19:25.004Z,6.00
2019-04-11T10:21:58.503Z,7.80
2019-04-11T10:24:34.671Z,6.83
2019-04-11T10:27:08.802Z,6.03
2019-04-11T10:29:41.905Z,6.33
2019-04-11T10:32:10.836Z,6.93
2019-04-11T10:34:47.746Z,6.97
2019-04-11T10:37:18.260Z,6.93
2019-04-11T10:40:05.965Z,7.13
2019-04-11T10:42:34.966Z,6.63
2019-04-11T10:45:36.440Z,6.87
2019-04-11T10:48:06.872Z,6.60
2019-04-11T10:51:45.608Z,6.13
2019-04-11T10:54:15.580Z,5.93
2019-04-11T10:56:51.617Z,6.47
2019-04-11T10:59:19.591Z,6.30
2019-04-11T11:01:53.676Z,5.93
2019-04-11T11:04:28.587Z,6.60
2019-04-11T11:07:00.351Z,6.23
2019-04-11T11:09:37.216Z,6.60
2019-04-11T11:12:10.638Z,6.93
2019-04-11T11:14:45.045Z,6.03
2019-04-11T11:17:43.745Z,6.90
2019-04-11T11:20:08.553Z,6.97
2019-04-11T11:23:33.106Z,7.60
2019-04-11T11:26:07.038Z,7.60
2019-04-11T11:28:38.748Z,6.77
2019-04-11T11:31:14.087Z,6.70
2019-04-11T11:33:45.016Z,6.40
2019-04-11T11:36:25.793Z,6.83
2019-04-11T11:39:00.298Z,7.07
2019-04-11T11:41:34.845Z,6.27
2019-04-11T11:44:03.727Z,6.80
2019-04-11T11:47:39.844Z,6.80
2019-04-11T11:50:14.665Z,7.07
2019-04-11T11:53:40.618Z,6.67
2019-04-11T11:56:10.010Z,6.80
2019-04-11T11:58:47.850Z,6.87
2019-04-11T12:01:13.847Z,8.00
2019-04-11T12:03:50.733Z,8.13
2019-04-11T12:06:22.223Z,7.13
2019-04-11T12:08:56.214Z,6.73
2019-04-11T12:11:26.287Z,7.33
2019-04-11T12:13:58.400Z,7.03
2019-04-11T12:16:33.514Z,7.53
2019-04-11T12:19:06.765Z,6.77
2019-04-11T12:21:36.669Z,7.47
2019-04-11T12:24:20.818Z,7.57
2019-04-11T12:26:55.967Z,6.33
2019-04-11T12:29:30.112Z,7.27
2019-04-11T12:31:58.119Z,7.53
2019-04-11T12:34:47.200Z,7.30
2019-04-11T12:37:22.214Z,6.73
2019-04-11T12:39:54.517Z,6.87
2019-04-11T12:42:28.982Z,7.33
2019-04-11T12:45:38.255Z,6.90
2019-04-11T12:48:07.670Z,6.83
2019-04-11T12:50:43.347Z,7.20
2019-04-11T12:53:16.800Z,6.77
2019-04-11T12:55:51.996Z,7.67
2019-04-11T12:58:26.106Z,6.63
2019-04-11T13:01:00.320Z,7.23
2019-04-11T13:03:35.389Z,7.37
2019-04-11T13:06:08.394Z,7.70
2019-04-11T13:08:45.423Z,7.37
2019-04-11T13:11:14.783Z,7.87
2019-04-11T13:13:49.831Z,8.03
2019-04-11T13:16:19.267Z,7.30
2019-04-11T13:18:57.127Z,7.37
2019-04-11T13:21:29.202Z,7.97
2019-04-11T13:24:03.372Z,7.00
2019-04-11T13:26:43.836Z,7.33
2019-04-11T13:29:17.691Z,7.73
2019-04-11T13:31:52.682Z,7.17
2019-04-11T13:34:22.137Z,7.37
2019-04-11T13:36:57.172Z,6.87
2019-04-11T13:39:26.963Z,8.00
2019-04-11T13:42:01.250Z,8.07
2019-04-11T13:44:32.897Z,7.87
2019-04-11T13:47:10.803Z,7.80
2019-04-11T13:49:48.008Z,7.07
2019-04-11T13:53:19.739Z,7.03
2019-04-11T13:55:49.328Z,7.27
2019-04-11T13:58:24.063Z,7.87
2019-04-11T14:00:56.580Z,7.80
2019-04-11T14:03:55.797Z,8.00
2019-04-11T14:06:28.896Z,6.97
2019-04-11T14:09:34.451Z,6.93
2019-04-11T14:12:05.831Z,7.40
2019-04-11T14:14:44.505Z,7.60
2019-04-11T14:17:22.033Z,7.53
2019-04-11T14:20:29.712Z,6.27
2019-04-11T14:23:57.882Z,7.53
2019-04-11T14:26:30.972Z,7.20
2019-04-11T14:29:05.863Z,7.40
2019-04-11T14:31:40.729Z,7.67
2019-04-11T14:34:15.092Z,7.63
2019-04-11T14:36:52.093Z,7.43
2019-04-11T14:39:22.556Z,7.37
2019-04-11T14:42:01.658Z,7.47
2019-04-11T14:44:31.424Z,7.43
2019-04-11T14:47:06.859Z,7.00
2019-04-11T14:49:34.807Z,7.70
2019-04-11T14:52:09.493Z,7.10
2019-04-11T14:54:40.881Z,7.17
2019-04-11T14:57:22.743Z,6.47
2019-04-11T14:59:53.826Z,8.10
2019-04-11T15:02:30.788Z,7.97
2019-04-11T15:05:06.089Z,6.70
2019-04-11T15:07:33.979Z,6.90
2019-04-11T15:10:09.210Z,6.50
2019-04-11T15:12:38.000Z,6.97
2019-04-11T15:15:13.957Z,6.93
2019-04-11T15:17:42.853Z,7.17
2019-04-11T15:21:19.744Z,6.97
2019-04-11T15:23:50.898Z,6.90
2019-04-11T15:26:25.776Z,7.00
2019-04-11T15:29:00.274Z,6.77
2019-04-11T15:31:39.440Z,7.30
2019-04-11T15:34:12.651Z,6.80
2019-04-11T15:36:45.552Z,6.43
2019-04-11T15:39:21.742Z,6.73
2019-04-11T15:41:53.792Z,7.53
2019-04-11T15:44:25.183Z,7.07
2019-04-11T15:46:56.485Z,7.37
2019-04-11T15:49:31.558Z,7.07
2019-04-11T15:52:07.499Z,7.10
2019-04-11T15:55:38.351Z,6.87
2019-04-11T15:58:08.145Z,7.50
2019-04-11T16:00:43.858Z,7.37
2019-04-11T16:03:15.506Z,7.40
2019-04-11T16:05:49.794Z,7.40
2019-04-11T16:08:24.800Z,8.13
2019-04-11T16:11:03.160Z,7.63
2019-04-11T16:13:35.863Z,7.47
2019-04-11T16:16:09.620Z,7.17
2019-04-11T16:18:46.940Z,7.50
2019-04-11T16:21:18.690Z,7.70
2019-04-11T16:23:51.288Z,7.40
2019-04-11T16:26:24.821Z,7.77
2019-04-11T16:28:59.134Z,8.67
2019-04-11T16:31:30.991Z,7.03
2019-04-11T16:34:10.926Z,7.83
2019-04-11T16:36:49.423Z,7.93
2019-04-11T16:39:23.491Z,8.38
2019-04-11T16:41:57.499Z,7.73
2019-04-11T16:44:35.488Z,8.50
2019-04-11T16:47:16.419Z,7.30
2019-04-11T16:49:45.225Z,7.10
2019-04-11T16:52:14.063Z,7.50
2019-04-11T16:54:42.870Z,7.47
2019-04-11T16:57:13.573Z,7.70
2019-04-11T16:59:41.510Z,7.70
2019-04-11T17:02:10.399Z,7.90
2019-04-11T17:04:40.598Z,7.17
2019-04-11T17:07:14.666Z,8.13
2019-04-11T17:09:46.474Z,7.00
2019-04-11T17:12:15.671Z,7.50
2019-04-11T17:14:44.500Z,6.77
2019-04-11T17:17:15.247Z,7.57
2019-04-11T17:19:42.140Z,7.93
2019-04-11T17:22:11.476Z,7.53
2019-04-11T17:24:40.294Z,7.90
2019-04-11T17:27:09.087Z,7.37
2019-04-11T17:29:39.482Z,7.50
2019-04-11T17:32:08.338Z,7.67
2019-04-11T17:34:37.201Z,7.63
2019-04-11T17:37:06.327Z,7.30
2019-04-11T17:39:36.835Z,7.63
2019-04-11T17:42:04.356Z,8.37
2019-04-11T17:44:33.277Z,7.47
2019-04-11T17:47:02.742Z,7.63
2019-04-11T17:49:33.739Z,7.63
2019-04-11T17:52:05.124Z,7.23
2019-04-11T17:54:32.451Z,7.33
2019-04-11T17:57:01.232Z,7.73
2019-04-11T17:59:30.040Z,7.70
2019-04-11T18:01:58.897Z,7.80
2019-04-11T18:04:28.797Z,8.37
2019-04-11T18:06:57.634Z,7.70
2019-04-11T18:09:26.501Z,9.40
2019-04-11T18:11:56.110Z,8.10
2019-04-11T18:14:24.070Z,7.50
2019-04-11T18:16:52.922Z,7.57
2019-04-11T18:19:23.015Z,8.70
2019-04-11T18:21:51.924Z,9.27
2019-04-11T18:24:21.984Z,7.37
2019-04-11T18:26:51.966Z,8.50
2019-04-11T18:29:22.741Z,7.33
2019-04-11T18:31:48.452Z,7.73
2019-04-11T18:34:17.615Z,7.53
2019-04-11T18:36:46.438Z,7.37
2019-04-11T18:39:16.139Z,7.70
2019-04-11T18:41:44.931Z,8.20
2019-04-11T18:44:18.018Z,7.97
2019-04-11T18:46:44.065Z,8.53
2019-04-11T18:49:13.024Z,7.43
2019-04-11T18:51:41.828Z,9.10
2019-04-11T18:54:11.264Z,9.17
2019-04-11T18:56:40.048Z,8.50
2019-04-11T18:59:08.933Z,8.33
2019-04-11T19:01:39.845Z,9.27
2019-04-11T19:04:07.097Z,8.17
2019-04-11T19:06:35.898Z,8.27
2019-04-11T19:09:08.850Z,8.70
2019-04-11T19:11:38.004Z,8.43
2019-04-11T19:14:07.285Z,7.97
2019-04-11T19:16:36.166Z,8.50
2019-04-11T19:19:06.292Z,8.53
2019-04-11T19:21:35.075Z,8.70
2019-04-11T19:24:03.962Z,8.77
2019-04-11T19:26:32.730Z,8.20
2019-04-11T19:29:02.813Z,9.60
2019-04-11T19:31:32.901Z,8.53
2019-04-11T19:34:04.415Z,8.70
2019-04-11T19:36:30.551Z,8.63
2019-04-11T19:39:01.823Z,9.50
2019-04-11T19:41:30.678Z,7.73
2019-04-11T19:43:59.536Z,8.67
2019-04-11T19:46:28.514Z,8.30
2019-04-11T19:48:59.671Z,12.33
2019-04-11T19:51:28.968Z,17.27
2019-04-11T19:53:58.173Z,9.83
2019-04-11T19:56:33.379Z,8.53
2019-04-11T19:59:02.869Z,9.23
2019-04-11T20:01:31.761Z,9.80
2019-04-11T20:04:01.156Z,8.30
2019-04-11T20:06:30.054Z,8.90
2019-04-11T20:08:58.900Z,9.80
2019-04-11T20:11:29.310Z,9.17
2019-04-11T20:13:57.466Z,9.67
2019-04-11T20:16:26.272Z,8.53
2019-04-11T20:18:57.509Z,9.17
2019-04-11T20:21:26.227Z,9.33
2019-04-11T20:23:55.006Z,9.03
2019-04-11T20:26:23.802Z,8.67
2019-04-11T20:28:52.604Z,9.53
2019-04-11T20:31:21.978Z,9.17
2019-04-11T20:33:51.550Z,8.53
2019-04-11T20:36:20.356Z,8.77
2019-04-11T20:38:49.279Z,9.40
2019-04-11T20:41:18.019Z,9.50
2019-04-11T20:43:46.802Z,9.47
2019-04-11T20:46:15.653Z,9.60
2019-04-11T20:48:44.532Z,9.40
2019-04-11T20:51:17.478Z,8.53
2019-04-11T20:53:44.193Z,8.90
2019-04-11T20:56:23.686Z,8.97
2019-04-11T20:58:42.160Z,9.07
2019-04-11T21:01:11.643Z,9.67
2019-04-11T21:03:40.457Z,9.27
2019-04-11T21:06:10.354Z,9.40
2019-04-11T21:08:39.188Z,9.33
2019-04-11T21:11:08.415Z,8.97
2019-04-11T21:13:38.475Z,8.67
2019-04-11T21:16:06.795Z,8.03
2019-04-11T21:18:35.588Z,9.03
2019-04-11T21:21:04.430Z,8.73
2019-04-11T21:23:33.876Z,9.23
2019-04-11T21:26:03.414Z,8.97
2019-04-11T21:28:32.460Z,7.97
2019-04-11T21:31:02.376Z,8.67
2019-04-11T21:33:34.005Z,8.53
2019-04-11T21:36:01.356Z,9.20
2019-04-11T21:38:30.936Z,8.93
2019-04-11T21:40:59.372Z,8.70
2019-04-11T21:43:28.203Z,9.47
2019-04-11T21:45:57.966Z,8.73
2019-04-11T21:48:26.950Z,8.93
2019-04-11T21:50:55.769Z,8.80
2019-04-11T21:53:35.971Z,7.77
2019-04-11T21:55:54.810Z,7.97
2019-04-11T21:58:23.566Z,8.77
2019-04-11T22:00:58.168Z,8.63
2019-04-11T22:03:27.029Z,7.83
2019-04-11T22:05:59.844Z,8.27
2019-04-11T22:08:24.640Z,7.80
2019-04-11T22:10:53.431Z,8.40
2019-04-11T22:13:22.215Z,7.23
2019-04-11T22:15:52.092Z,8.50
2019-04-11T22:18:20.894Z,8.03
2019-04-11T22:20:49.787Z,8.13
2019-04-11T22:23:18.668Z,8.33
2019-04-11T22:25:47.498Z,8.03
2019-04-11T22:28:16.324Z,8.57
2019-04-11T22:30:45.433Z,7.40
2019-04-11T22:33:52.087Z,7.47
2019-04-11T22:36:22.133Z,7.67
2019-04-11T22:38:50.952Z,6.77
2019-04-11T22:41:19.876Z,7.20
2019-04-11T22:43:48.654Z,7.97
2019-04-11T22:46:20.898Z,7.13
2019-04-11T22:48:46.247Z,7.30
2019-04-11T22:51:15.407Z,7.07
2019-04-11T22:53:45.654Z,7.30
2019-04-11T22:56:14.441Z,6.73
2019-04-11T22:58:43.818Z,6.70
2019-04-11T23:01:13.995Z,6.60
2019-04-11T23:03:47.584Z,6.53
2019-04-11T23:06:14.941Z,6.53
2019-04-11T23:08:43.568Z,6.87
2019-04-11T23:11:15.120Z,6.13
2019-04-11T23:13:45.364Z,6.00
2019-04-11T23:16:14.381Z,6.30
2019-04-11T23:18:44.214Z,6.47
2019-04-11T23:21:14.305Z,6.40
2019-04-11T23:23:42.747Z,6.20
2019-04-11T23:26:11.606Z,6.13
2019-04-11T23:28:40.860Z,5.57
2019-04-11T23:31:09.679Z,6.33
2019-04-11T23:33:38.544Z,6.40
2019-04-11T23:36:07.861Z,5.73
2019-04-11T23:38:37.176Z,6.50
2019-04-11T23:41:06.031Z,6.67
2019-04-11T23:43:34.826Z,6.03
2019-04-11T23:46:04.740Z,5.83
2019-04-11T23:48:33.540Z,6.27
2019-04-11T23:51:03.022Z,6.60
2019-04-11T23:53:32.052Z,6.10
2019-04-11T23:56:01.415Z,6.20
2019-04-11T23:58:32.070Z,5.87
